Time;durP1;ratioP1;P1;durP2;ratioP2;P2;SDS_P1;SDS_P2;PMS_P1;PMS_P2;Temp;Humidity;BMP_temperature;BMP_pressure;BME280_temperature;BME280_humidity;BME280_pressure;Samples;Min_cycle;Max_cycle;Signal;HPM_P1;HPM_P2
2022/02/11 00:07:43;;;;;;;12.00;1.90;;;;;;;;;;4445660;32;20067;-52
2022/02/11 00:10:12;;;;;;;10.98;1.80;;;;;;;;;;4432780;32;20030;-54
2022/02/11 00:12:40;;;;;;;7.40;1.60;;;;;;;;;;4434361;32;20065;-55
2022/02/11 00:17:46;;;;;;;9.77;1.75;;;;;;;;;;4438225;32;20095;-55
2022/02/11 00:20:15;;;;;;;7.72;1.35;;;;;;;;;;4438153;32;20151;-55
2022/02/11 00:22:43;;;;;;;11.90;1.58;;;;;;;;;;4436295;32;20110;-56
2022/02/11 00:25:12;;;;;;;10.18;1.42;;;;;;;;;;4440976;32;20045;-56
2022/02/11 00:35:53;;;;;;;6.53;1.17;;;;;;;;;;4439341;32;20071;-56
2022/02/11 00:38:33;;;;;;;8.75;1.80;;;;;;;;;;4445597;32;20038;-54
2022/02/11 01:03:47;;;;;;;7.20;1.67;;;;;;;;;;4388197;32;20039;-56
2022/02/11 01:06:08;;;;;;;4.75;1.12;;;;;;;;;;4382018;32;20110;-56
2022/02/11 01:08:39;;;;;;;5.60;1.33;;;;;;;;;;4416466;32;20126;-52
2022/02/11 01:11:17;;;;;;;4.50;1.17;;;;;;;;;;4444454;32;20105;-55
2022/02/11 01:13:46;;;;;;;6.45;1.15;;;;;;;;;;4439902;32;20534;-54
2022/02/11 01:16:20;;;;;;;7.50;1.70;;;;;;;;;;4437861;32;20437;-54
2022/02/11 01:18:57;;;;;;;7.53;1.30;;;;;;;;;;4442179;32;20087;-52
2022/02/11 01:21:35;;;;;;;4.18;1.45;;;;;;;;;;4423838;32;20069;-53
2022/02/11 01:24:29;;;;;;;6.85;1.23;;;;;;;;;;4439469;32;20037;-56
2022/02/11 01:35:27;;;;;;;6.72;1.40;;;;;;;;;;4438706;32;20084;-52
2022/02/11 01:38:20;;;;;;;5.87;1.12;;;;;;;;;;4440245;32;20059;-54
2022/02/11 01:57:01;;;;;;;11.75;1.60;;;;;;;;;;4430466;32;20094;-54
2022/02/11 02:29:25;;;;;;;9.57;1.80;;;;;;;;;;4448651;32;20429;-56
2022/02/11 02:38:02;;;;;;;8.30;1.70;;;;;;;;;;4444898;32;20141;-55
2022/02/11 02:57:36;;;;;;;9.32;1.60;;;;;;;;;;4440134;32;20054;-55
2022/02/11 03:17:21;;;;;;;10.65;2.03;;;;;;;;;;4439457;32;20045;-55
2022/02/11 04:27:37;;;;;;;10.63;2.25;;;;;;;;;;4416717;32;20042;-55
2022/02/11 05:00:00;;;;;;;12.50;2.12;;;;;;;;;;4433980;32;20046;-55
2022/02/11 05:02:30;;;;;;;19.65;2.60;;;;;;;;;;4437250;32;20420;-52
2022/02/11 05:05:06;;;;;;;17.73;3.17;;;;;;;;;;4433660;32;20090;-56
2022/02/11 05:07:35;;;;;;;22.25;2.92;;;;;;;;;;4444354;32;20061;-56
2022/02/11 05:10:05;;;;;;;16.23;2.72;;;;;;;;;;4440377;32;20019;-54
2022/02/11 05:12:34;;;;;;;13.70;2.47;;;;;;;;;;4435003;32;20365;-54
2022/02/11 05:15:08;;;;;;;19.17;2.35;;;;;;;;;;4427266;32;20042;-53
2022/02/11 05:17:37;;;;;;;20.53;3.20;;;;;;;;;;4434679;32;20495;-53
2022/02/11 05:20:07;;;;;;;17.12;2.90;;;;;;;;;;4439341;32;20155;-55
2022/02/11 05:22:36;;;;;;;21.12;2.75;;;;;;;;;;4436780;32;20376;-55
2022/02/11 05:25:06;;;;;;;16.73;2.58;;;;;;;;;;4433532;32;20323;-56
2022/02/11 05:27:34;;;;;;;17.95;2.62;;;;;;;;;;4434520;32;20065;-53
2022/02/11 05:30:03;;;;;;;13.50;2.40;;;;;;;;;;4439169;32;20041;-54
2022/02/11 05:32:32;;;;;;;13.20;2.55;;;;;;;;;;4439080;32;20057;-55
2022/02/11 05:35:00;;;;;;;16.80;3.00;;;;;;;;;;4438335;32;20050;-56
2022/02/11 05:37:28;;;;;;;14.50;2.85;;;;;;;;;;4438555;32;20041;-54
2022/02/11 05:39:57;;;;;;;14.82;2.90;;;;;;;;;;4444770;32;20126;-55
2022/02/11 05:42:28;;;;;;;18.42;2.30;;;;;;;;;;4442103;32;20046;-54
2022/02/11 05:44:56;;;;;;;14.20;2.50;;;;;;;;;;4429752;32;20104;-56
2022/02/11 05:47:25;;;;;;;16.35;2.17;;;;;;;;;;4443441;32;20029;-56
2022/02/11 05:49:53;;;;;;;17.12;2.70;;;;;;;;;;4443128;32;20038;-53
2022/02/11 05:52:42;;;;;;;16.40;2.60;;;;;;;;;;4427226;32;20057;-56
2022/02/11 05:55:10;;;;;;;14.13;2.60;;;;;;;;;;4441235;32;20054;-56
2022/02/11 05:57:38;;;;;;;19.27;2.62;;;;;;;;;;4440840;32;20046;-54
2022/02/11 06:00:07;;;;;;;17.17;2.37;;;;;;;;;;4450327;32;20083;-57
2022/02/11 06:02:37;;;;;;;18.00;2.37;;;;;;;;;;4436840;32;20149;-54
2022/02/11 06:05:06;;;;;;;14.43;2.47;;;;;;;;;;4434163;32;20088;-56
2022/02/11 06:07:34;;;;;;;12.32;2.55;;;;;;;;;;4442042;32;20042;-56
2022/02/11 06:10:03;;;;;;;10.27;2.05;;;;;;;;;;4439262;32;23459;-57
2022/02/11 06:12:32;;;;;;;15.40;2.17;;;;;;;;;;4438318;32;20049;-53
2022/02/11 06:15:00;;;;;;;15.73;2.22;;;;;;;;;;4433429;32;20041;-55
2022/02/11 06:17:29;;;;;;;14.75;2.08;;;;;;;;;;4431537;32;20398;-55
2022/02/11 06:20:00;;;;;;;12.48;2.05;;;;;;;;;;4438295;32;20038;-55
2022/02/11 06:22:31;;;;;;;13.25;2.35;;;;;;;;;;4443824;32;20048;-56
2022/02/11 06:25:00;;;;;;;17.33;2.22;;;;;;;;;;4442227;32;20042;-54
2022/02/11 06:27:28;;;;;;;12.98;2.12;;;;;;;;;;4433700;32;20136;-55
2022/02/11 06:29:56;;;;;;;17.87;2.70;;;;;;;;;;4437297;32;20403;-57
2022/02/11 06:32:25;;;;;;;14.80;2.05;;;;;;;;;;4432093;32;20088;-57
2022/02/11 06:34:56;;;;;;;17.98;3.10;;;;;;;;;;4433625;32;20485;-58
2022/02/11 06:37:24;;;;;;;15.93;2.42;;;;;;;;;;4437658;32;20086;-57
2022/02/11 06:39:53;;;;;;;14.30;2.20;;;;;;;;;;4435778;32;20022;-56
2022/02/11 06:42:21;;;;;;;16.77;2.55;;;;;;;;;;4438245;32;20037;-56
2022/02/11 06:44:51;;;;;;;12.20;2.25;;;;;;;;;;4435242;32;20089;-56
2022/02/11 06:47:19;;;;;;;20.25;2.55;;;;;;;;;;4445931;32;20077;-53
2022/02/11 06:49:50;;;;;;;7.95;1.98;;;;;;;;;;4436384;32;20145;-56
2022/02/11 06:52:18;;;;;;;12.75;2.03;;;;;;;;;;4435785;32;20069;-57
2022/02/11 06:54:47;;;;;;;12.37;2.22;;;;;;;;;;4435526;32;20181;-57
2022/02/11 06:57:15;;;;;;;9.93;1.92;;;;;;;;;;4429335;32;20490;-57
2022/02/11 06:59:44;;;;;;;11.50;2.00;;;;;;;;;;4432279;32;20060;-53
2022/02/11 07:02:19;;;;;;;12.60;2.30;;;;;;;;;;4440240;32;20056;-56
2022/02/11 07:04:48;;;;;;;11.18;2.17;;;;;;;;;;4428308;32;20138;-55
2022/02/11 07:07:16;;;;;;;7.20;1.80;;;;;;;;;;4428192;32;20060;-55
2022/02/11 07:09:44;;;;;;;14.48;2.37;;;;;;;;;;4443811;32;20428;-55
2022/02/11 07:12:13;;;;;;;7.78;1.77;;;;;;;;;;4443624;32;20026;-57
2022/02/11 07:14:41;;;;;;;17.92;2.20;;;;;;;;;;4442868;32;20405;-55
2022/02/11 07:17:11;;;;;;;12.07;2.20;;;;;;;;;;4430173;32;20060;-56
2022/02/11 07:19:42;;;;;;;15.20;2.22;;;;;;;;;;4421909;32;20034;-55
2022/02/11 07:22:11;;;;;;;16.15;2.47;;;;;;;;;;4437650;32;20094;-55
2022/02/11 07:24:39;;;;;;;16.67;2.05;;;;;;;;;;4433807;32;20416;-53
2022/02/11 07:27:10;;;;;;;11.00;1.77;;;;;;;;;;4440285;32;20118;-54
2022/02/11 07:29:38;;;;;;;12.90;2.20;;;;;;;;;;4436714;32;20053;-55
2022/02/11 07:32:06;;;;;;;11.80;1.95;;;;;;;;;;4430033;32;20134;-57
2022/02/11 07:34:36;;;;;;;12.07;2.35;;;;;;;;;;4431154;32;20090;-55
2022/02/11 07:37:05;;;;;;;15.77;2.03;;;;;;;;;;4425553;32;20076;-55
2022/02/11 07:39:50;;;;;;;16.83;2.25;;;;;;;;;;4431037;32;20466;-57
2022/02/11 07:42:19;;;;;;;11.80;2.15;;;;;;;;;;4424030;32;20046;-54
2022/02/11 07:44:48;;;;;;;15.70;2.00;;;;;;;;;;4430219;32;20038;-53
2022/02/11 07:47:17;;;;;;;17.90;2.58;;;;;;;;;;4433381;32;20137;-55
2022/02/11 07:49:45;;;;;;;12.85;2.42;;;;;;;;;;4437606;32;20136;-56
2022/02/11 07:52:14;;;;;;;13.40;2.05;;;;;;;;;;4433280;32;20037;-55
2022/02/11 07:54:44;;;;;;;12.90;2.50;;;;;;;;;;4436534;32;20050;-54
2022/02/11 07:57:13;;;;;;;10.88;1.70;;;;;;;;;;4438498;32;20379;-55
2022/02/11 07:59:45;;;;;;;12.68;2.58;;;;;;;;;;4437333;32;20049;-54
2022/02/11 08:02:13;;;;;;;12.27;2.12;;;;;;;;;;4437162;32;20059;-52
2022/02/11 08:04:41;;;;;;;13.25;1.95;;;;;;;;;;4429717;32;20345;-51
2022/02/11 08:07:10;;;;;;;12.32;1.75;;;;;;;;;;4429060;32;20392;-51
2022/02/11 08:09:38;;;;;;;15.10;2.47;;;;;;;;;;4441556;32;20084;-52
2022/02/11 08:12:07;;;;;;;10.13;1.65;;;;;;;;;;4443860;32;20042;-50
2022/02/11 08:14:35;;;;;;;14.18;2.42;;;;;;;;;;4436209;32;20045;-54
2022/02/11 08:17:03;;;;;;;14.07;2.35;;;;;;;;;;4432742;32;20390;-54
2022/02/11 08:19:32;;;;;;;15.85;2.05;;;;;;;;;;4432785;32;20086;-52
2022/02/11 08:22:00;;;;;;;14.77;2.70;;;;;;;;;;4440684;32;20054;-52
2022/02/11 08:24:28;;;;;;;21.90;2.80;;;;;;;;;;4427506;32;20046;-53
2022/02/11 08:26:58;;;;;;;16.80;2.08;;;;;;;;;;4432866;32;20093;-54
2022/02/11 08:29:31;;;;;;;21.08;2.70;;;;;;;;;;4423433;32;20060;-52
2022/02/11 08:31:59;;;;;;;18.73;2.50;;;;;;;;;;4423333;32;20112;-53
2022/02/11 08:34:28;;;;;;;17.30;2.62;;;;;;;;;;4426284;32;20468;-54
2022/02/11 08:36:56;;;;;;;17.08;2.05;;;;;;;;;;4422689;32;20042;-55
2022/02/11 08:39:24;;;;;;;10.85;1.75;;;;;;;;;;4432725;32;20030;-54
2022/02/11 08:41:53;;;;;;;11.73;1.60;;;;;;;;;;4422283;32;20353;-53
2022/02/11 08:44:21;;;;;;;13.62;1.83;;;;;;;;;;4426556;32;20056;-51
2022/02/11 08:46:50;;;;;;;10.43;1.90;;;;;;;;;;4439972;32;20048;-54
2022/02/11 08:49:18;;;;;;;11.15;1.50;;;;;;;;;;4439784;32;20130;-54
2022/02/11 08:51:46;;;;;;;8.23;1.37;;;;;;;;;;4426996;32;20076;-51
2022/02/11 08:54:15;;;;;;;9.15;1.58;;;;;;;;;;4432067;32;20064;-53
2022/02/11 08:56:43;;;;;;;10.93;1.65;;;;;;;;;;4431547;32;20049;-54
2022/02/11 08:59:11;;;;;;;9.50;1.70;;;;;;;;;;4431344;32;20034;-54
2022/02/11 09:01:40;;;;;;;8.00;1.65;;;;;;;;;;4429984;32;20050;-51
2022/02/11 09:04:08;;;;;;;6.68;1.70;;;;;;;;;;4430991;32;20480;-54
2022/02/11 09:06:36;;;;;;;7.03;1.33;;;;;;;;;;4425907;32;20058;-51
2022/02/11 09:09:08;;;;;;;7.22;1.35;;;;;;;;;;4439652;32;20042;-55
2022/02/11 09:11:36;;;;;;;9.35;1.30;;;;;;;;;;4433738;32;20445;-51
2022/02/11 09:14:06;;;;;;;12.63;1.62;;;;;;;;;;4431866;32;20052;-51
2022/02/11 09:16:34;;;;;;;9.65;1.80;;;;;;;;;;4440821;32;20429;-50
2022/02/11 09:19:06;;;;;;;7.25;1.83;;;;;;;;;;4439244;32;20033;-53
2022/02/11 09:21:34;;;;;;;7.87;2.12;;;;;;;;;;4429957;32;20385;-53
2022/02/11 09:24:04;;;;;;;10.18;1.70;;;;;;;;;;4438155;32;20096;-52
2022/02/11 09:26:33;;;;;;;10.40;1.80;;;;;;;;;;4435511;32;20105;-51
2022/02/11 09:29:03;;;;;;;8.95;2.22;;;;;;;;;;4441090;32;20060;-51
2022/02/11 09:31:31;;;;;;;11.05;2.10;;;;;;;;;;4425643;32;20480;-55
2022/02/11 09:34:04;;;;;;;12.50;2.67;;;;;;;;;;4440527;32;20098;-53
2022/02/11 09:36:34;;;;;;;16.10;2.85;;;;;;;;;;4441060;32;20116;-53
2022/02/11 09:39:04;;;;;;;21.37;3.30;;;;;;;;;;4434248;32;20060;-51
2022/02/11 09:41:33;;;;;;;17.25;2.80;;;;;;;;;;4430731;32;20046;-51
2022/02/11 09:44:02;;;;;;;15.68;2.80;;;;;;;;;;4423809;32;20050;-51
2022/02/11 09:46:31;;;;;;;22.02;3.45;;;;;;;;;;4435444;32;20061;-52
2022/02/11 09:48:59;;;;;;;19.50;3.45;;;;;;;;;;4440234;32;20093;-51
2022/02/11 09:51:26;;;;;;;22.15;3.47;;;;;;;;;;4430938;32;20422;-52
2022/02/11 09:53:54;;;;;;;22.65;3.53;;;;;;;;;;4431763;32;20057;-50
2022/02/11 09:56:23;;;;;;;17.17;3.40;;;;;;;;;;4442901;32;20127;-54
2022/02/11 09:59:07;;;;;;;25.25;3.55;;;;;;;;;;4433562;32;20357;-54
2022/02/11 10:01:37;;;;;;;14.43;3.00;;;;;;;;;;4438176;32;20120;-51
2022/02/11 10:04:11;;;;;;;19.33;3.20;;;;;;;;;;4441725;32;20060;-54
2022/02/11 10:06:40;;;;;;;16.10;3.45;;;;;;;;;;4434810;32;20125;-54
2022/02/11 10:09:09;;;;;;;14.80;3.42;;;;;;;;;;4433105;32;20065;-53
2022/02/11 10:11:37;;;;;;;16.98;2.60;;;;;;;;;;4435649;32;20037;-54
2022/02/11 10:14:19;;;;;;;17.05;3.85;;;;;;;;;;4439834;32;20042;-54
2022/02/11 10:16:56;;;;;;;17.25;3.10;;;;;;;;;;4436876;32;20034;-51
2022/02/11 10:19:43;;;;;;;20.35;3.08;;;;;;;;;;4436402;32;20045;-52
2022/02/11 10:22:13;;;;;;;17.90;3.20;;;;;;;;;;4428990;32;20050;-51
2022/02/11 10:24:42;;;;;;;14.45;3.25;;;;;;;;;;4428171;32;20053;-51
2022/02/11 10:27:30;;;;;;;19.98;3.37;;;;;;;;;;4430661;32;20458;-53
2022/02/11 10:30:00;;;;;;;13.90;3.12;;;;;;;;;;4437946;32;20104;-53
2022/02/11 10:32:56;;;;;;;17.85;2.70;;;;;;;;;;4428096;32;20153;-53
2022/02/11 10:35:28;;;;;;;17.35;2.80;;;;;;;;;;4420651;32;20034;-53
2022/02/11 10:38:13;;;;;;;18.70;2.90;;;;;;;;;;4436931;32;20033;-50
2022/02/11 10:40:42;;;;;;;11.68;2.60;;;;;;;;;;4437267;32;20054;-54
2022/02/11 10:43:29;;;;;;;15.05;2.95;;;;;;;;;;4426242;32;20039;-51
2022/02/11 10:46:04;;;;;;;18.65;3.28;;;;;;;;;;4434890;32;20446;-54
2022/02/11 10:48:34;;;;;;;16.65;2.87;;;;;;;;;;4440601;32;20044;-54
2022/02/11 10:51:07;;;;;;;12.20;2.70;;;;;;;;;;4443897;32;20094;-54
2022/02/11 10:53:37;;;;;;;14.07;2.70;;;;;;;;;;4434641;32;20030;-52
2022/02/11 10:56:06;;;;;;;19.20;3.35;;;;;;;;;;4432517;32;20060;-52
2022/02/11 10:58:34;;;;;;;13.18;2.70;;;;;;;;;;4434281;32;20462;-53
2022/02/11 11:01:05;;;;;;;14.10;2.58;;;;;;;;;;4444391;32;20136;-54
2022/02/11 11:03:34;;;;;;;12.07;2.95;;;;;;;;;;4432812;32;20041;-51
2022/02/11 11:06:05;;;;;;;12.77;2.70;;;;;;;;;;4448970;32;20052;-53
2022/02/11 11:08:46;;;;;;;17.80;2.85;;;;;;;;;;4440948;32;20041;-53
2022/02/11 11:11:18;;;;;;;10.75;2.65;;;;;;;;;;4445492;32;20117;-54
2022/02/11 11:13:48;;;;;;;8.50;2.15;;;;;;;;;;4433395;32;20054;-54
2022/02/11 11:16:17;;;;;;;6.78;2.12;;;;;;;;;;4428373;32;20137;-53
2022/02/11 11:18:46;;;;;;;7.85;2.00;;;;;;;;;;4437194;32;20034;-51
2022/02/11 11:21:15;;;;;;;9.90;1.85;;;;;;;;;;4438316;32;20054;-51
2022/02/11 11:23:54;;;;;;;6.75;1.80;;;;;;;;;;4430276;32;20041;-51
2022/02/11 11:26:43;;;;;;;11.70;2.10;;;;;;;;;;4440552;32;20045;-54
2022/02/11 11:29:15;;;;;;;7.72;2.12;;;;;;;;;;4433197;32;20041;-54
2022/02/11 11:31:59;;;;;;;7.25;1.90;;;;;;;;;;4436755;32;20082;-51
2022/02/11 11:34:34;;;;;;;10.05;1.60;;;;;;;;;;4429589;32;20076;-53
2022/02/11 11:37:07;;;;;;;6.82;1.55;;;;;;;;;;4439152;32;20057;-55
2022/02/11 11:39:36;;;;;;;6.85;1.40;;;;;;;;;;4433720;32;20113;-53
2022/02/11 11:42:05;;;;;;;7.45;1.60;;;;;;;;;;4436533;32;20090;-53
2022/02/11 11:44:43;;;;;;;5.95;1.60;;;;;;;;;;4433164;32;20046;-55
2022/02/11 11:47:13;;;;;;;6.07;1.37;;;;;;;;;;4433029;32;20467;-53
2022/02/11 11:49:47;;;;;;;7.82;1.37;;;;;;;;;;4444829;32;20099;-54
2022/02/11 11:52:16;;;;;;;6.62;1.48;;;;;;;;;;4442181;32;20056;-54
2022/02/11 11:54:44;;;;;;;6.55;1.52;;;;;;;;;;4437670;32;20039;-51
2022/02/11 11:57:17;;;;;;;5.90;1.27;;;;;;;;;;4433140;32;20479;-50
2022/02/11 11:59:46;;;;;;;6.97;1.35;;;;;;;;;;4436911;32;20130;-53
2022/02/11 12:02:14;;;;;;;5.62;1.20;;;;;;;;;;4437270;32;20447;-55
2022/02/11 12:04:42;;;;;;;5.60;1.33;;;;;;;;;;4437809;32;20037;-54
2022/02/11 12:07:11;;;;;;;8.13;1.20;;;;;;;;;;4436159;32;20045;-55
2022/02/11 12:09:41;;;;;;;5.45;1.33;;;;;;;;;;4430884;32;20081;-50
2022/02/11 12:12:11;;;;;;;5.47;1.27;;;;;;;;;;4432968;32;20088;-54
2022/02/11 12:14:40;;;;;;;9.25;1.37;;;;;;;;;;4424945;32;20094;-51
2022/02/11 12:17:11;;;;;;;14.82;2.22;;;;;;;;;;4433859;32;20041;-51
2022/02/11 12:19:41;;;;;;;13.68;1.90;;;;;;;;;;4432430;32;20073;-51
2022/02/11 12:22:09;;;;;;;13.27;1.80;;;;;;;;;;4432179;32;20544;-54
2022/02/11 12:27:45;;;;;;;15.95;2.35;;;;;;;;;;4422060;32;20073;-54
2022/02/11 12:30:16;;;;;;;15.35;2.70;;;;;;;;;;4428039;32;20089;-54
2022/02/11 12:32:46;;;;;;;15.27;2.70;;;;;;;;;;4434973;32;20088;-55
2022/02/11 12:35:14;;;;;;;16.40;3.15;;;;;;;;;;4432512;32;20034;-53
2022/02/11 12:37:43;;;;;;;19.08;3.33;;;;;;;;;;4426941;32;20101;-51
2022/02/11 12:40:12;;;;;;;14.20;2.90;;;;;;;;;;4438482;32;20045;-52
2022/02/11 12:42:42;;;;;;;14.85;2.72;;;;;;;;;;4430135;32;20084;-53
2022/02/11 12:45:12;;;;;;;15.43;3.45;;;;;;;;;;4446682;32;20113;-54
2022/02/11 12:47:41;;;;;;;19.83;3.55;;;;;;;;;;4430114;32;20102;-53
2022/02/11 12:50:10;;;;;;;18.30;3.12;;;;;;;;;;4437466;32;20042;-54
2022/02/11 12:52:39;;;;;;;20.27;3.20;;;;;;;;;;4435339;32;20428;-55
2022/02/11 12:55:10;;;;;;;19.20;3.20;;;;;;;;;;4430696;32;20604;-54
2022/02/11 12:57:40;;;;;;;18.73;3.47;;;;;;;;;;4429501;32;20065;-52
2022/02/11 13:00:14;;;;;;;13.65;2.85;;;;;;;;;;4425224;32;20086;-52
2022/02/11 13:02:43;;;;;;;18.48;3.12;;;;;;;;;;4433480;32;20123;-50
2022/02/11 13:05:12;;;;;;;17.15;3.40;;;;;;;;;;4432917;32;20042;-53
2022/02/11 13:07:42;;;;;;;20.42;3.42;;;;;;;;;;4436111;32;20148;-52
2022/02/11 13:10:11;;;;;;;24.52;3.10;;;;;;;;;;4441977;32;20509;-53
2022/02/11 13:12:41;;;;;;;20.90;3.85;;;;;;;;;;4439393;32;20102;-53
2022/02/11 13:15:11;;;;;;;21.30;3.40;;;;;;;;;;4434726;32;20091;-52
2022/02/11 13:17:40;;;;;;;16.15;3.30;;;;;;;;;;4427771;32;20104;-53
2022/02/11 13:20:19;;;;;;;19.20;3.97;;;;;;;;;;4425241;32;20081;-54
2022/02/11 13:22:49;;;;;;;15.93;3.50;;;;;;;;;;4418866;32;20198;-53
2022/02/11 13:25:19;;;;;;;18.75;3.65;;;;;;;;;;4427235;32;20108;-54
2022/02/11 13:27:56;;;;;;;15.25;3.30;;;;;;;;;;4444111;32;20048;-54
2022/02/11 13:30:29;;;;;;;16.67;3.25;;;;;;;;;;4431859;32;20047;-52
2022/02/11 13:32:59;;;;;;;25.80;3.22;;;;;;;;;;4438163;32;20468;-51
2022/02/11 13:35:28;;;;;;;23.00;3.47;;;;;;;;;;4438359;32;20152;-52
2022/02/11 13:38:00;;;;;;;23.35;3.72;;;;;;;;;;4437956;32;20490;-53
2022/02/11 13:40:30;;;;;;;11.12;2.83;;;;;;;;;;4440610;32;20072;-52
2022/02/11 13:43:06;;;;;;;19.98;3.80;;;;;;;;;;4442860;32;20058;-54
2022/02/11 13:45:50;;;;;;;15.63;3.08;;;;;;;;;;4437423;32;20060;-52
2022/02/11 13:48:19;;;;;;;20.73;3.40;;;;;;;;;;4439253;32;20053;-54
2022/02/11 13:51:13;;;;;;;19.37;4.00;;;;;;;;;;4443010;32;20029;-53
2022/02/11 13:53:52;;;;;;;20.37;3.37;;;;;;;;;;4438551;32;20374;-54
2022/02/11 13:56:25;;;;;;;17.17;3.47;;;;;;;;;;4438073;32;20064;-54
2022/02/11 13:59:06;;;;;;;15.80;3.08;;;;;;;;;;4438322;32;20472;-52
2022/02/11 14:01:37;;;;;;;16.27;3.17;;;;;;;;;;4446384;32;20518;-51
2022/02/11 14:04:07;;;;;;;17.48;3.67;;;;;;;;;;4448086;32;20056;-52
2022/02/11 14:06:36;;;;;;;17.00;2.83;;;;;;;;;;4441978;32;20198;-53
2022/02/11 14:09:08;;;;;;;14.20;3.17;;;;;;;;;;4441445;32;20488;-55
2022/02/11 14:11:40;;;;;;;12.57;2.85;;;;;;;;;;4439323;32;20493;-55
2022/02/11 14:14:17;;;;;;;18.58;3.62;;;;;;;;;;4446872;32;20404;-54
2022/02/11 14:16:46;;;;;;;14.45;2.75;;;;;;;;;;4437829;32;20049;-55
2022/02/11 14:19:17;;;;;;;15.75;2.75;;;;;;;;;;4440317;32;20072;-52
2022/02/11 14:21:46;;;;;;;15.50;2.37;;;;;;;;;;4442738;32;20094;-55
2022/02/11 14:24:14;;;;;;;13.70;2.65;;;;;;;;;;4440575;32;20052;-51
2022/02/11 14:26:43;;;;;;;17.17;2.50;;;;;;;;;;4436915;32;20057;-53
2022/02/11 14:29:11;;;;;;;11.20;2.50;;;;;;;;;;4441225;32;20113;-51
2022/02/11 14:31:41;;;;;;;14.38;2.28;;;;;;;;;;4436999;32;20126;-55
2022/02/11 14:34:12;;;;;;;11.68;2.15;;;;;;;;;;4440966;32;20057;-54
2022/02/11 14:36:43;;;;;;;11.25;1.90;;;;;;;;;;4440041;32;20060;-53
2022/02/11 14:39:19;;;;;;;9.77;2.03;;;;;;;;;;4428860;32;20060;-53
2022/02/11 14:41:49;;;;;;;11.38;2.00;;;;;;;;;;4438480;32;20054;-53
2022/02/11 14:44:19;;;;;;;9.65;2.00;;;;;;;;;;4444174;32;20041;-51
2022/02/11 14:46:48;;;;;;;9.40;1.83;;;;;;;;;;4435782;32;20052;-55
2022/02/11 14:49:18;;;;;;;8.10;1.70;;;;;;;;;;4442746;32;20411;-53
2022/02/11 14:51:47;;;;;;;9.73;2.00;;;;;;;;;;4446141;32;20467;-53
2022/02/11 14:54:15;;;;;;;8.05;2.00;;;;;;;;;;4434583;32;20038;-54
2022/02/11 14:56:44;;;;;;;7.37;1.67;;;;;;;;;;4444375;32;20056;-52
2022/02/11 14:59:14;;;;;;;10.15;1.83;;;;;;;;;;4437977;32;20046;-53
2022/02/11 15:01:42;;;;;;;11.65;1.83;;;;;;;;;;4439985;32;20090;-51
2022/02/11 15:04:12;;;;;;;6.75;1.75;;;;;;;;;;4438426;32;20098;-54
2022/02/11 15:06:40;;;;;;;7.82;1.73;;;;;;;;;;4441322;32;20124;-54
2022/02/11 15:09:09;;;;;;;6.95;1.67;;;;;;;;;;4441291;32;20055;-53
2022/02/11 15:11:38;;;;;;;4.25;1.27;;;;;;;;;;4439591;32;20039;-53
2022/02/11 15:14:06;;;;;;;6.10;1.87;;;;;;;;;;4440175;32;20094;-54
2022/02/11 15:16:34;;;;;;;11.98;2.00;;;;;;;;;;4435371;32;20041;-51
2022/02/11 15:19:03;;;;;;;5.93;1.60;;;;;;;;;;4440728;32;20053;-51
2022/02/11 15:21:31;;;;;;;8.48;1.52;;;;;;;;;;4436294;32;20081;-54
2022/02/11 15:23:59;;;;;;;11.10;1.60;;;;;;;;;;4440227;32;20473;-54
2022/02/11 15:26:28;;;;;;;9.60;1.98;;;;;;;;;;4433743;32;20096;-53
2022/02/11 15:28:57;;;;;;;9.00;1.70;;;;;;;;;;4427968;32;20128;-54
2022/02/11 15:31:25;;;;;;;8.05;1.40;;;;;;;;;;4437198;32;20038;-54
2022/02/11 15:33:54;;;;;;;8.90;2.05;;;;;;;;;;4435460;32;20168;-55
2022/02/11 15:36:22;;;;;;;13.75;2.10;;;;;;;;;;4433375;32;20416;-52
2022/02/11 15:38:51;;;;;;;17.48;1.80;;;;;;;;;;4432882;32;20069;-54
2022/02/11 15:41:20;;;;;;;8.55;1.80;;;;;;;;;;4439174;32;20468;-54
2022/02/11 15:43:48;;;;;;;9.75;1.80;;;;;;;;;;4443284;32;20045;-53
2022/02/11 15:46:18;;;;;;;7.68;1.83;;;;;;;;;;4429269;32;20065;-54
2022/02/11 15:48:46;;;;;;;7.95;1.45;;;;;;;;;;4429930;32;20046;-55
2022/02/11 15:51:16;;;;;;;9.57;1.40;;;;;;;;;;4435352;32;20482;-51
2022/02/11 15:53:45;;;;;;;7.30;1.45;;;;;;;;;;4437459;32;20072;-53
2022/02/11 15:56:14;;;;;;;6.93;1.70;;;;;;;;;;4438170;32;20041;-52
2022/02/11 15:58:43;;;;;;;8.43;1.60;;;;;;;;;;4434384;32;20123;-50
2022/02/11 16:01:11;;;;;;;9.80;1.37;;;;;;;;;;4436575;32;20077;-54
2022/02/11 16:03:40;;;;;;;4.93;1.08;;;;;;;;;;4443448;32;20409;-51
2022/02/11 16:06:08;;;;;;;10.27;1.60;;;;;;;;;;4442104;32;20072;-53
2022/02/11 16:08:36;;;;;;;9.55;1.40;;;;;;;;;;4436971;32;20060;-53
2022/02/11 16:11:05;;;;;;;8.05;1.12;;;;;;;;;;4446146;32;20038;-51
2022/02/11 16:13:33;;;;;;;6.97;1.70;;;;;;;;;;4440632;32;20071;-53
2022/02/11 16:16:01;;;;;;;9.45;1.30;;;;;;;;;;4437695;32;20546;-52
2022/02/11 16:18:32;;;;;;;8.65;1.40;;;;;;;;;;4435721;32;20086;-53
2022/02/11 16:21:00;;;;;;;7.80;1.70;;;;;;;;;;4434403;32;20334;-54
2022/02/11 16:23:30;;;;;;;7.90;1.60;;;;;;;;;;4445213;32;20038;-53
2022/02/11 16:25:59;;;;;;;11.27;1.60;;;;;;;;;;4443489;32;20061;-54
2022/02/11 16:28:28;;;;;;;11.38;1.45;;;;;;;;;;4444475;32;20098;-51
2022/02/11 16:31:14;;;;;;;8.38;1.60;;;;;;;;;;4435317;32;20058;-51
2022/02/11 16:33:43;;;;;;;6.82;1.52;;;;;;;;;;4448613;32;20071;-50
2022/02/11 16:36:11;;;;;;;9.48;1.55;;;;;;;;;;4443070;32;20107;-54
2022/02/11 16:38:41;;;;;;;9.48;1.75;;;;;;;;;;4437151;32;20060;-55
2022/02/11 16:41:09;;;;;;;9.75;1.50;;;;;;;;;;4434405;32;20029;-54
2022/02/11 16:43:38;;;;;;;13.15;1.50;;;;;;;;;;4439745;32;20034;-54
2022/02/11 16:46:06;;;;;;;5.90;1.37;;;;;;;;;;4448712;32;20056;-54
2022/02/11 16:48:35;;;;;;;8.00;1.40;;;;;;;;;;4440797;32;20034;-53
2022/02/11 16:51:04;;;;;;;7.85;1.62;;;;;;;;;;4435887;32;20046;-52
2022/02/11 16:53:38;;;;;;;8.50;1.85;;;;;;;;;;4438528;32;20082;-55
2022/02/11 16:56:07;;;;;;;9.90;1.50;;;;;;;;;;4440633;32;20094;-54
2022/02/11 16:58:36;;;;;;;10.60;1.33;;;;;;;;;;4427027;32;20064;-50
2022/02/11 17:01:05;;;;;;;7.75;1.15;;;;;;;;;;4429217;32;20057;-55
2022/02/11 17:03:33;;;;;;;6.62;1.15;;;;;;;;;;4436560;32;20038;-54
2022/02/11 17:06:01;;;;;;;9.10;1.60;;;;;;;;;;4443811;32;20081;-54
2022/02/11 17:08:30;;;;;;;5.28;1.17;;;;;;;;;;4447102;32;20068;-53
2022/02/11 17:10:58;;;;;;;8.00;1.50;;;;;;;;;;4442874;32;20041;-54
2022/02/11 17:13:26;;;;;;;9.73;1.50;;;;;;;;;;4447725;32;20376;-54
2022/02/11 17:15:55;;;;;;;6.53;1.10;;;;;;;;;;4443854;32;20485;-52
2022/02/11 17:18:24;;;;;;;6.22;1.30;;;;;;;;;;4443280;32;20104;-54
2022/02/11 17:20:53;;;;;;;4.70;1.08;;;;;;;;;;4436971;32;20110;-53
2022/02/11 17:23:22;;;;;;;11.52;1.67;;;;;;;;;;4435946;32;20466;-53
2022/02/11 17:25:50;;;;;;;7.18;1.20;;;;;;;;;;4444381;32;20037;-53
2022/02/11 17:28:19;;;;;;;6.70;1.30;;;;;;;;;;4440489;32;20429;-54
2022/02/11 17:30:47;;;;;;;8.15;1.55;;;;;;;;;;4442816;32;20042;-51
2022/02/11 17:33:15;;;;;;;8.40;1.12;;;;;;;;;;4440258;32;20057;-53
2022/02/11 17:35:46;;;;;;;4.60;1.12;;;;;;;;;;4439246;32;20365;-51
2022/02/11 17:38:14;;;;;;;8.38;1.48;;;;;;;;;;4446925;32;20046;-52
2022/02/11 17:40:43;;;;;;;8.63;1.23;;;;;;;;;;4436818;32;20067;-50
2022/02/11 17:43:14;;;;;;;7.03;1.08;;;;;;;;;;4446144;32;20155;-53
2022/02/11 17:45:43;;;;;;;4.93;1.33;;;;;;;;;;4448296;32;20421;-52
2022/02/11 17:48:11;;;;;;;7.00;1.30;;;;;;;;;;4442531;32;20113;-56
2022/02/11 17:50:40;;;;;;;12.07;1.35;;;;;;;;;;4443834;32;20204;-55
2022/02/11 17:53:08;;;;;;;5.40;1.48;;;;;;;;;;4441430;32;20053;-53
2022/02/11 17:55:36;;;;;;;8.98;1.55;;;;;;;;;;4440600;32;20093;-52
2022/02/11 17:58:11;;;;;;;10.98;1.40;;;;;;;;;;4433650;32;20401;-54
2022/02/11 18:00:39;;;;;;;9.00;1.50;;;;;;;;;;4435131;32;20049;-54
2022/02/11 18:03:08;;;;;;;8.05;1.40;;;;;;;;;;4441284;32;20072;-54
2022/02/11 18:05:37;;;;;;;8.70;1.45;;;;;;;;;;4445756;32;20045;-54
2022/02/11 18:08:07;;;;;;;8.80;1.30;;;;;;;;;;4447155;32;20034;-55
2022/02/11 18:10:35;;;;;;;4.85;1.10;;;;;;;;;;4442829;32;20106;-52
2022/02/11 18:13:04;;;;;;;8.10;1.35;;;;;;;;;;4440969;32;20029;-54
2022/02/11 18:15:32;;;;;;;7.43;1.27;;;;;;;;;;4430374;32;20384;-55
2022/02/11 18:18:00;;;;;;;7.03;1.10;;;;;;;;;;4439302;32;20069;-55
2022/02/11 18:20:30;;;;;;;8.57;1.40;;;;;;;;;;4446274;32;20357;-55
2022/02/11 18:22:59;;;;;;;8.43;1.40;;;;;;;;;;4438650;32;20037;-54
2022/02/11 18:25:31;;;;;;;6.30;1.20;;;;;;;;;;4442092;32;20427;-54
2022/02/11 18:28:01;;;;;;;7.05;1.40;;;;;;;;;;4442973;32;20115;-52
2022/02/11 18:30:29;;;;;;;6.40;1.30;;;;;;;;;;4445957;32;20064;-53
2022/02/11 18:32:58;;;;;;;8.02;1.30;;;;;;;;;;4439786;32;20060;-55
2022/02/11 18:35:28;;;;;;;6.55;1.37;;;;;;;;;;4436630;32;20045;-55
2022/02/11 18:37:57;;;;;;;7.75;1.10;;;;;;;;;;4442707;32;20061;-55
2022/02/11 18:40:25;;;;;;;6.75;1.05;;;;;;;;;;4439991;32;20034;-55
2022/02/11 18:42:53;;;;;;;9.32;1.08;;;;;;;;;;4444580;32;20076;-55
2022/02/11 18:45:22;;;;;;;10.32;1.30;;;;;;;;;;4446408;32;20086;-54
2022/02/11 18:47:50;;;;;;;4.03;1.10;;;;;;;;;;4435902;32;20079;-56
2022/02/11 18:50:19;;;;;;;6.68;1.30;;;;;;;;;;4440487;32;20034;-55